Time;durP1;ratioP1;P1;durP2;ratioP2;P2;SDS_P1;SDS_P2;PMS_P1;PMS_P2;Temp;Humidity;BMP_temperature;BMP_pressure;BME280_temperature;BME280_humidity;BME280_pressure;Samples;Min_cycle;Max_cycle;Signal;HPM_P1;HPM_P2
2022/06/17 00:01:31;;;;;;;9.48;3.75;;;;;;;17.62;100.00;101104.94;5052583;28;20183;-82
2022/06/17 00:03:57;;;;;;;10.18;2.90;;;;;;;17.74;100.00;101111.28;5053266;28;20053;-82
2022/06/17 00:06:34;;;;;;;7.30;2.67;;;;;;;18.01;100.00;101105.25;5054574;28;20049;-82
2022/06/17 00:09:01;;;;;;;8.00;2.53;;;;;;;18.43;100.00;101127.28;5053209;28;20059;-82
2022/06/17 00:11:31;;;;;;;7.22;2.58;;;;;;;18.29;100.00;101114.06;5050923;28;20055;-82
2022/06/17 00:13:59;;;;;;;10.43;3.28;;;;;;;18.26;100.00;101119.59;5040146;28;20053;-82
2022/06/17 00:16:32;;;;;;;8.18;2.97;;;;;;;17.88;100.00;101114.88;5053214;28;20052;-82
2022/06/17 00:18:59;;;;;;;7.35;2.72;;;;;;;17.97;100.00;101091.34;5052740;28;20045;-82
2022/06/17 00:21:33;;;;;;;8.45;3.10;;;;;;;17.74;100.00;101090.09;5052211;28;20055;-82
2022/06/17 00:24:01;;;;;;;8.02;2.33;;;;;;;17.95;100.00;101089.72;5049418;28;20055;-82
2022/06/17 00:26:28;;;;;;;10.38;2.58;;;;;;;17.52;100.00;101057.94;5046111;28;20053;-82
2022/06/17 00:28:54;;;;;;;5.93;2.40;;;;;;;17.38;100.00;101046.38;5053333;28;20049;-82
2022/06/17 00:31:21;;;;;;;7.68;2.67;;;;;;;17.42;100.00;101041.75;5051963;28;20439;-82
2022/06/17 00:33:48;;;;;;;4.68;1.80;;;;;;;17.92;100.00;101053.69;5052954;28;20077;-82
2022/06/17 00:36:18;;;;;;;5.35;1.90;;;;;;;18.02;100.00;101060.09;5052992;28;20045;-82
2022/06/17 00:38:46;;;;;;;4.88;1.90;;;;;;;17.95;100.00;101057.91;5053501;28;20053;-82
2022/06/17 00:41:34;;;;;;;5.95;2.00;;;;;;;18.11;100.00;101048.03;5047070;28;20049;-82
2022/06/17 00:44:13;;;;;;;6.40;2.30;;;;;;;17.92;100.00;101035.13;5052218;28;20045;-82
2022/06/17 00:46:51;;;;;;;7.35;2.17;;;;;;;17.81;100.00;101032.28;5052178;28;20099;-82
2022/06/17 00:49:40;;;;;;;4.88;1.63;;;;;;;17.79;100.00;101036.81;5045547;28;20045;-82
2022/06/17 00:52:44;;;;;;;7.68;1.88;;;;;;;18.36;100.00;101042.03;5040614;28;20436;-82
2022/06/17 00:55:24;;;;;;;6.50;2.07;;;;;;;18.27;100.00;101032.00;5040759;28;20413;-83
2022/06/17 00:57:50;;;;;;;4.95;1.80;;;;;;;18.48;100.00;101013.81;5040452;28;20053;-82
2022/06/17 01:00:21;;;;;;;7.00;2.38;;;;;;;18.63;100.00;101017.28;5032421;28;20060;-82
2022/06/17 01:02:53;;;;;;;6.40;2.05;;;;;;;18.34;100.00;101035.97;5045485;28;20081;-82
2022/06/17 01:05:25;;;;;;;5.57;2.00;;;;;;;17.80;100.00;100993.50;5052377;28;20049;-82
2022/06/17 01:08:01;;;;;;;5.38;2.20;;;;;;;17.54;100.00;101009.22;5041314;28;20054;-82
2022/06/17 01:10:30;;;;;;;6.72;2.08;;;;;;;17.75;100.00;101022.94;5035220;28;20060;-82
2022/06/17 01:13:05;;;;;;;9.57;2.33;;;;;;;17.98;100.00;101032.09;5045250;28;20491;-82
2022/06/17 01:15:35;;;;;;;7.57;2.65;;;;;;;17.89;100.00;101018.59;5053007;28;20051;-81
2022/06/17 01:18:02;;;;;;;6.97;2.53;;;;;;;17.73;100.00;100989.56;5053406;28;20045;-82
2022/06/17 01:20:30;;;;;;;7.07;2.47;;;;;;;17.39;100.00;100970.50;5046779;28;20045;-82
2022/06/17 01:22:59;;;;;;;7.68;2.60;;;;;;;17.40;100.00;100972.19;5043903;28;20049;-82
2022/06/17 01:25:34;;;;;;;6.72;2.70;;;;;;;17.23;100.00;100966.16;5048896;28;20049;-82
2022/06/17 01:28:04;;;;;;;5.40;2.08;;;;;;;17.70;100.00;100958.81;5042370;28;20044;-82
2022/06/17 01:30:33;;;;;;;7.03;2.72;;;;;;;17.53;100.00;100957.25;5050524;28;20045;-82
2022/06/17 01:33:00;;;;;;;7.03;2.70;;;;;;;17.80;100.00;100941.38;5051926;28;20044;-82
2022/06/17 01:35:31;;;;;;;11.02;3.45;;;;;;;17.42;100.00;100914.72;5052943;28;20049;-82
2022/06/17 01:37:59;;;;;;;9.55;3.10;;;;;;;17.41;100.00;100918.31;5051808;28;20049;-83
2022/06/17 01:40:28;;;;;;;8.40;2.92;;;;;;;17.28;100.00;100918.22;5051836;28;20051;-82
2022/06/17 01:43:00;;;;;;;7.10;2.13;;;;;;;17.18;100.00;100880.09;5053386;28;20118;-82
2022/06/17 01:45:26;;;;;;;9.75;2.90;;;;;;;17.38;100.00;100907.91;5051716;28;20051;-82
2022/06/17 01:47:53;;;;;;;9.85;3.28;;;;;;;17.08;100.00;100875.34;5051585;28;20066;-83
2022/06/17 01:50:26;;;;;;;7.35;2.70;;;;;;;17.25;100.00;100876.94;5060292;28;20488;-83
2022/06/17 01:52:59;;;;;;;;;;;;;;;17.22;100.00;100903.59;5036854;28;20052;-83
2022/06/17 01:55:33;;;;;;;9.23;3.13;;;;;;;16.93;100.00;100868.41;5053037;28;19921;-82
2022/06/17 01:58:23;;;;;;;8.75;2.60;;;;;;;17.04;100.00;100887.06;5068574;28;20049;-82
2022/06/17 02:00:50;;;;;;;7.38;2.90;;;;;;;17.16;100.00;100885.47;5044989;28;20049;-83
2022/06/17 02:03:28;;;;;;;9.02;2.53;;;;;;;16.98;100.00;100868.09;5066951;28;20045;-83
2022/06/17 02:06:06;;;;;;;12.52;3.22;;;;;;;16.74;100.00;100865.16;5051259;28;20052;-83
2022/06/17 02:08:34;;;;;;;8.57;2.45;;;;;;;17.07;100.00;100839.28;5065071;28;20767;-82
2022/06/17 02:11:03;;;;;;;7.03;2.00;;;;;;;17.15;100.00;100832.66;5045739;28;20483;-83
2022/06/17 02:13:36;;;;;;;8.98;3.42;;;;;;;16.43;100.00;100830.88;5060166;28;20131;-85
2022/06/17 02:16:06;;;;;;;7.35;2.70;;;;;;;16.64;100.00;100825.19;5073056;28;20063;-84
2022/06/17 02:18:34;;;;;;;8.80;3.58;;;;;;;16.56;100.00;100782.56;5063252;28;20040;-84
2022/06/17 02:21:07;;;;;;;9.93;3.88;;;;;;;16.60;100.00;100773.47;5051303;28;20067;-84
2022/06/17 02:23:34;;;;;;;8.30;2.70;;;;;;;16.93;100.00;100791.69;5044540;28;20048;-84
2022/06/17 02:26:03;;;;;;;9.90;3.50;;;;;;;16.88;100.00;100793.78;5059936;28;20048;-84
2022/06/17 02:28:31;;;;;;;11.68;3.20;;;;;;;16.82;100.00;100735.94;5037201;28;20528;-84
2022/06/17 02:30:59;;;;;;;10.52;3.53;;;;;;;17.29;100.00;100741.81;5049507;28;20049;-84
2022/06/17 02:33:28;;;;;;;8.55;3.25;;;;;;;16.83;100.00;100743.81;5054040;28;20127;-84
2022/06/17 02:36:00;;;;;;;9.07;3.13;;;;;;;16.80;100.00;100744.00;5057689;28;20049;-84
2022/06/17 02:38:30;;;;;;;8.13;2.78;;;;;;;17.15;100.00;100753.28;5060507;28;20491;-84
2022/06/17 02:41:05;;;;;;;9.70;2.95;;;;;;;17.04;100.00;100741.59;5049564;28;20053;-84
2022/06/17 02:43:41;;;;;;;11.15;3.25;;;;;;;16.70;100.00;100740.25;5064506;28;20135;-84
2022/06/17 02:46:15;;;;;;;8.90;3.58;;;;;;;16.58;100.00;100728.63;5047122;28;20053;-84
2022/06/17 02:48:57;;;;;;;13.07;5.82;;;;;;;15.67;100.00;100743.81;5040056;28;20101;-84
2022/06/17 02:51:27;;;;;;;15.65;5.10;;;;;;;15.95;100.00;100724.56;5030605;28;20056;-84
2022/06/17 02:53:54;;;;;;;14.63;6.15;;;;;;;15.47;100.00;100690.41;5064100;28;20403;-84
2022/06/17 02:56:26;;;;;;;17.45;6.38;;;;;;;15.22;100.00;100659.34;5047901;28;20507;-84
2022/06/17 02:59:03;;;;;;;12.15;4.35;;;;;;;15.89;100.00;100717.03;5052094;28;20492;-84
2022/06/17 03:01:32;;;;;;;17.00;7.20;;;;;;;15.82;100.00;100719.19;5058115;28;20053;-83
2022/06/17 03:04:01;;;;;;;18.58;5.75;;;;;;;15.78;100.00;100727.41;5052392;28;20053;-84
2022/06/17 03:06:34;;;;;;;15.95;6.60;;;;;;;15.48;100.00;100691.28;5067739;28;20049;-84
2022/06/17 03:09:15;;;;;;;24.10;6.10;;;;;;;15.87;100.00;100725.03;5038603;28;20053;-84
2022/06/17 03:11:45;;;;;;;20.83;6.78;;;;;;;15.67;100.00;100723.56;5065913;28;20566;-84
2022/06/17 03:14:12;;;;;;;14.07;6.75;;;;;;;15.42;100.00;100694.25;5050383;28;20044;-83
2022/06/17 03:16:42;;;;;;;20.23;6.88;;;;;;;15.42;100.00;100681.06;5066217;28;20383;-83
2022/06/17 03:19:11;;;;;;;18.73;7.35;;;;;;;15.28;100.00;100673.97;5071432;28;20056;-84
2022/06/17 03:21:38;;;;;;;15.13;5.78;;;;;;;15.50;100.00;100687.59;5063683;28;20063;-83
2022/06/17 03:24:12;;;;;;;14.05;5.63;;;;;;;15.34;100.00;100674.47;5053749;28;20498;-83
2022/06/17 03:26:52;;;;;;;14.07;5.18;;;;;;;15.11;100.00;100659.97;5053799;28;20060;-83
2022/06/17 03:29:21;;;;;;;14.95;5.13;;;;;;;15.45;100.00;100700.22;5050901;28;20072;-84
2022/06/17 03:32:02;;;;;;;16.17;5.47;;;;;;;15.29;100.00;100668.59;5041694;28;20052;-84
2022/06/17 03:34:36;;;;;;;16.73;5.80;;;;;;;15.23;100.00;100676.00;5048542;28;20060;-82
2022/06/17 03:37:08;;;;;;;13.15;4.82;;;;;;;15.12;100.00;100622.13;5062019;28;20052;-82
2022/06/17 03:39:41;;;;;;;16.75;5.28;;;;;;;15.40;100.00;100685.59;5050649;28;20047;-82
2022/06/17 03:42:18;;;;;;;;;;;;;;;15.45;100.00;100691.47;5041524;28;20055;-82
2022/06/17 03:44:51;;;;;;;13.50;4.75;;;;;;;15.19;100.00;100647.22;5068856;28;20294;-82
2022/06/17 03:47:24;;;;;;;;;;;;;;;15.47;100.00;100665.81;5071223;28;20063;-82
2022/06/17 03:50:02;;;;;;;16.98;4.18;;;;;;;15.43;100.00;100637.94;5041403;28;19924;-82
2022/06/17 03:52:43;;;;;;;11.43;4.60;;;;;;;14.98;100.00;100582.53;5062821;28;20049;-82
2022/06/17 03:55:15;;;;;;;14.02;4.00;;;;;;;15.22;100.00;100593.41;5073908;28;20591;-82
2022/06/17 03:57:44;;;;;;;13.20;4.25;;;;;;;15.54;100.00;100635.50;5053998;28;20052;-82
2022/06/17 04:00:19;;;;;;;18.85;3.85;;;;;;;15.28;100.00;100592.19;5054403;28;20053;-82
2022/06/17 04:02:48;;;;;;;15.50;4.10;;;;;;;15.66;100.00;100621.56;5053867;28;20368;-82
2022/06/17 04:05:16;;;;;;;14.65;3.67;;;;;;;15.81;100.00;100627.75;5053593;28;20060;-83
2022/06/17 04:07:43;;;;;;;17.48;4.05;;;;;;;15.41;100.00;100574.72;5062433;28;20040;-83
2022/06/17 04:10:15;;;;;;;13.57;3.35;;;;;;;15.43;100.00;100609.75;5071367;28;20064;-83
2022/06/17 04:12:47;;;;;;;9.93;3.17;;;;;;;15.54;100.00;100585.34;5055016;28;20041;-83
2022/06/17 04:15:40;;;;;;;13.82;3.97;;;;;;;15.66;100.00;100546.81;5062764;28;20059;-83
2022/06/17 04:18:08;;;;;;;11.97;3.13;;;;;;;15.41;100.00;100526.38;5053637;28;20060;-83
2022/06/17 04:20:51;;;;;;;17.75;4.15;;;;;;;15.12;100.00;100536.88;5052784;28;20281;-83
2022/06/17 04:23:27;;;;;;;11.70;3.88;;;;;;;15.27;100.00;100516.66;5056968;28;20056;-83
2022/06/17 04:25:57;;;;;;;14.35;3.78;;;;;;;15.23;100.00;100552.94;5069733;28;20053;-83
2022/06/17 04:28:31;;;;;;;11.75;3.28;;;;;;;14.98;100.00;100559.66;5056189;28;20041;-83
2022/06/17 04:31:01;;;;;;;14.43;3.92;;;;;;;15.11;100.00;100525.50;5051322;28;20045;-83
2022/06/17 04:33:34;;;;;;;13.07;3.15;;;;;;;15.27;100.00;100506.13;5039910;28;20045;-83
2022/06/17 04:36:27;;;;;;;11.40;3.20;;;;;;;15.61;100.00;100515.44;5053753;28;20475;-83
2022/06/17 04:38:59;;;;;;;13.80;3.40;;;;;;;15.79;100.00;100534.56;5044622;28;20625;-83
2022/06/17 04:41:31;;;;;;;14.05;3.03;;;;;;;15.64;100.00;100509.97;5050633;28;20493;-83
2022/06/17 04:44:00;;;;;;;15.18;3.75;;;;;;;15.43;100.00;100509.50;5064932;28;20053;-83
2022/06/17 04:46:35;;;;;;;10.25;2.80;;;;;;;15.57;100.00;100492.81;5052888;28;20483;-83
2022/06/17 04:49:04;;;;;;;12.20;3.15;;;;;;;15.83;100.00;100508.81;5043879;28;20086;-83
2022/06/17 04:51:34;;;;;;;12.15;2.78;;;;;;;15.71;100.00;100526.28;5047323;28;20059;-83
2022/06/17 04:54:04;;;;;;;13.57;3.00;;;;;;;15.78;100.00;100538.19;5072984;28;20603;-83
2022/06/17 04:56:40;;;;;;;18.52;3.95;;;;;;;15.65;100.00;100534.56;5058048;28;20048;-83
2022/06/17 04:59:45;;;;;;;10.27;2.55;;;;;;;16.01;100.00;100527.97;5056171;28;20093;-83
2022/06/17 05:02:19;;;;;;;11.00;2.60;;;;;;;15.93;100.00;100494.94;5035929;28;20418;-84
2022/06/17 05:04:52;;;;;;;7.70;2.20;;;;;;;16.02;100.00;100530.47;5045721;28;20407;-84
2022/06/17 05:07:19;;;;;;;8.05;2.35;;;;;;;16.29;100.00;100511.19;5052132;28;20057;-84
2022/06/17 05:09:57;;;;;;;11.15;2.78;;;;;;;15.77;100.00;100459.06;5059704;28;20055;-83
2022/06/17 05:12:48;;;;;;;8.18;2.45;;;;;;;16.05;100.00;100485.41;5049498;28;20053;-83
2022/06/17 05:15:21;;;;;;;8.43;1.90;;;;;;;16.04;100.00;100456.44;5051870;28;20080;-83
2022/06/17 05:17:48;;;;;;;10.70;2.30;;;;;;;15.87;100.00;100462.84;5055505;28;20634;-82
2022/06/17 05:20:20;;;;;;;10.38;2.40;;;;;;;15.35;100.00;100473.06;5062592;28;20483;-82
2022/06/17 05:22:50;;;;;;;8.50;2.20;;;;;;;15.93;100.00;100465.06;5062197;28;20053;-82
2022/06/17 05:25:18;;;;;;;8.93;1.92;;;;;;;16.09;100.00;100463.13;5061214;28;20751;-82
2022/06/17 05:27:45;;;;;;;5.97;1.63;;;;;;;16.07;100.00;100443.88;5057377;28;20055;-82
2022/06/17 05:30:13;;;;;;;9.27;2.20;;;;;;;15.88;100.00;100449.53;5044590;28;20052;-82
2022/06/17 05:32:49;;;;;;;7.10;2.17;;;;;;;15.71;100.00;100418.06;5065363;28;20052;-82
2022/06/17 05:35:16;;;;;;;7.38;2.10;;;;;;;15.86;100.00;100416.25;5048517;28;20045;-83
2022/06/17 05:37:42;;;;;;;10.02;2.00;;;;;;;15.66;100.00;100436.81;5065377;28;20046;-83
2022/06/17 05:40:10;;;;;;;6.72;1.60;;;;;;;15.61;100.00;100417.78;5049833;28;20059;-88
2022/06/17 05:42:38;;;;;;;6.45;1.98;;;;;;;15.91;100.00;100433.47;5046615;28;20049;-83
2022/06/17 05:45:07;;;;;;;5.63;1.65;;;;;;;16.12;100.00;100457.66;5050645;28;20555;-83
2022/06/17 05:47:33;;;;;;;7.10;1.67;;;;;;;15.80;100.00;100433.34;5067652;28;20056;-83
2022/06/17 05:50:00;;;;;;;8.70;1.85;;;;;;;16.00;100.00;100441.75;5051665;28;20409;-83
2022/06/17 05:52:29;;;;;;;5.05;1.45;;;;;;;15.53;100.00;100394.53;5050424;28;20084;-84
2022/06/17 05:55:04;;;;;;;4.32;1.50;;;;;;;15.86;100.00;100447.94;5049202;28;20068;-84
2022/06/17 05:57:31;;;;;;;5.28;1.90;;;;;;;15.75;100.00;100460.00;5067724;28;20053;-83
2022/06/17 05:59:57;;;;;;;5.63;1.63;;;;;;;15.81;100.00;100444.72;5052293;28;20064;-83
2022/06/17 06:02:29;;;;;;;6.95;2.00;;;;;;;15.92;100.00;100421.16;5052349;28;20436;-84
2022/06/17 06:04:56;;;;;;;8.00;1.60;;;;;;;15.72;100.00;100439.09;5052785;28;20045;-84
2022/06/17 06:07:22;;;;;;;7.45;1.95;;;;;;;15.97;100.00;100448.09;5067086;28;20410;-83
2022/06/17 06:09:49;;;;;;;6.55;1.63;;;;;;;15.64;100.00;100454.53;5059882;28;20131;-83
2022/06/17 06:12:17;;;;;;;7.90;1.67;;;;;;;16.30;100.00;100452.09;5060160;28;20045;-83
2022/06/17 06:14:44;;;;;;;8.27;1.77;;;;;;;16.07;100.00;100445.69;5040839;28;20100;-83
2022/06/17 06:17:11;;;;;;;8.23;2.00;;;;;;;16.49;100.00;100483.44;5050541;28;20491;-83
2022/06/17 06:19:38;;;;;;;6.55;1.60;;;;;;;16.40;100.00;100476.13;5047011;28;20463;-83
2022/06/17 06:22:05;;;;;;;5.95;1.45;;;;;;;16.32;100.00;100473.97;5042736;28;20049;-83
2022/06/17 06:24:31;;;;;;;9.73;2.13;;;;;;;16.16;100.00;100473.31;5059581;28;20045;-83
2022/06/17 06:26:58;;;;;;;8.77;2.28;;;;;;;16.16;100.00;100495.25;5051282;28;20049;-83
2022/06/17 06:29:25;;;;;;;8.60;1.80;;;;;;;16.29;100.00;100513.84;5050300;28;20063;-82
2022/06/17 06:31:51;;;;;;;6.45;1.77;;;;;;;16.50;100.00;100512.41;5049490;28;20051;-83
2022/06/17 06:34:20;;;;;;;7.00;1.70;;;;;;;16.33;100.00;100478.34;5051201;28;20049;-83
2022/06/17 06:36:46;;;;;;;7.05;1.58;;;;;;;16.53;100.00;100490.22;5051468;28;20131;-83
2022/06/17 06:39:13;;;;;;;9.30;2.20;;;;;;;16.36;100.00;100475.50;5046931;28;20060;-83
2022/06/17 06:41:40;;;;;;;8.00;1.92;;;;;;;16.58;100.00;100479.34;5046995;28;20045;-83
2022/06/17 06:44:07;;;;;;;4.88;1.63;;;;;;;16.61;100.00;100466.78;5037261;28;20045;-83
2022/06/17 06:46:35;;;;;;;5.65;1.80;;;;;;;16.77;100.00;100465.72;5040913;28;20558;-83
2022/06/17 06:49:02;;;;;;;8.63;1.77;;;;;;;17.00;100.00;100490.66;5042447;28;20099;-83
2022/06/17 06:51:29;;;;;;;9.90;2.13;;;;;;;16.62;100.00;100473.72;5058047;28;20087;-83
2022/06/17 06:53:55;;;;;;;8.65;2.20;;;;;;;16.62;100.00;100462.31;5042966;28;20045;-83
2022/06/17 06:56:23;;;;;;;6.05;1.90;;;;;;;16.57;100.00;100438.84;5051123;28;20041;-84
2022/06/17 06:58:50;;;;;;;10.02;2.40;;;;;;;16.75;100.00;100452.63;5046726;28;20400;-83
2022/06/17 07:01:17;;;;;;;6.82;2.15;;;;;;;16.57;100.00;100462.63;5041590;28;20055;-83
2022/06/17 07:03:44;;;;;;;8.48;2.35;;;;;;;16.47;100.00;100419.28;5051588;28;20093;-84
2022/06/17 07:06:12;;;;;;;6.88;1.88;;;;;;;16.98;100.00;100464.31;5066824;28;20053;-84
2022/06/17 07:08:40;;;;;;;8.40;2.10;;;;;;;17.21;100.00;100469.78;5050088;28;20384;-84
2022/06/17 07:11:07;;;;;;;7.05;2.38;;;;;;;16.80;100.00;100468.16;5044224;28;20055;-83
2022/06/17 07:13:41;;;;;;;10.20;2.13;;;;;;;16.65;100.00;100460.31;5050961;28;20045;-83
2022/06/17 07:16:09;;;;;;;7.35;2.00;;;;;;;16.64;100.00;100440.16;5050328;28;20055;-84
2022/06/17 07:18:36;;;;;;;6.70;2.28;;;;;;;16.63;100.00;100446.38;5053425;28;20620;-84
2022/06/17 07:21:10;;;;;;;10.85;2.55;;;;;;;16.51;100.00;100450.66;5050152;28;20056;-84
2022/06/17 07:23:42;;;;;;;10.10;2.20;;;;;;;16.92;100.00;100487.69;5054472;28;20052;-83
2022/06/17 07:26:13;;;;;;;5.87;2.07;;;;;;;16.68;100.00;100462.75;5053744;28;20045;-84
2022/06/17 07:28:39;;;;;;;8.95;2.50;;;;;;;16.85;100.00;100416.69;5050251;28;20053;-84
2022/06/17 07:31:06;;;;;;;6.60;2.10;;;;;;;16.47;100.00;100392.88;5042218;28;20045;-84
2022/06/17 07:33:34;;;;;;;7.80;2.58;;;;;;;16.58;100.00;100429.13;5054997;28;20049;-84
2022/06/17 07:36:03;;;;;;;7.25;2.30;;;;;;;16.87;100.00;100419.22;5049856;28;20057;-84
2022/06/17 07:41:22;;;;;;;8.68;2.47;;;;;;;16.89;100.00;100427.88;5048438;28;20049;-84
2022/06/17 07:43:50;;;;;;;8.27;2.40;;;;;;;16.51;100.00;100389.06;5047378;28;20475;-84
2022/06/17 07:46:21;;;;;;;8.32;2.65;;;;;;;16.68;100.00;100399.31;5061781;28;20557;-84
2022/06/17 07:48:48;;;;;;;11.27;2.72;;;;;;;17.06;100.00;100400.28;5054675;28;20044;-84
2022/06/17 07:51:16;;;;;;;9.77;2.78;;;;;;;17.22;100.00;100416.75;5053351;28;20049;-83
2022/06/17 07:53:42;;;;;;;7.60;2.42;;;;;;;16.97;100.00;100404.41;5054914;28;20053;-83
2022/06/17 07:56:15;;;;;;;9.93;2.60;;;;;;;17.17;100.00;100424.19;5070579;28;20053;-84
2022/06/17 07:58:43;;;;;;;16.42;2.53;;;;;;;17.02;100.00;100422.63;5054605;28;20132;-84
2022/06/17 08:01:11;;;;;;;7.15;2.55;;;;;;;17.19;100.00;100421.44;5053893;28;20135;-83
2022/06/17 08:03:38;;;;;;;7.88;2.13;;;;;;;17.29;100.00;100419.00;5053000;28;20045;-84
2022/06/17 08:06:05;;;;;;;8.90;2.72;;;;;;;16.99;100.00;100431.59;5049111;28;20049;-84
2022/06/17 08:08:34;;;;;;;8.38;2.40;;;;;;;17.02;100.00;100427.91;5065674;28;20083;-84
2022/06/17 08:11:01;;;;;;;9.20;2.78;;;;;;;17.01;100.00;100407.69;5053557;28;20136;-84
2022/06/17 08:13:28;;;;;;;6.68;1.90;;;;;;;17.18;100.00;100428.53;5054196;28;20055;-84
2022/06/17 08:15:58;;;;;;;6.55;2.10;;;;;;;17.25;100.00;100458.06;5068523;28;20048;-84
2022/06/17 08:18:26;;;;;;;7.35;2.38;;;;;;;17.03;100.00;100443.69;5063617;28;20051;-84
2022/06/17 08:20:53;;;;;;;8.82;2.72;;;;;;;17.23;100.00;100459.97;5055535;28;20505;-84
2022/06/17 08:23:21;;;;;;;7.80;2.35;;;;;;;17.25;100.00;100450.94;5053164;28;20061;-84
2022/06/17 08:25:48;;;;;;;9.23;2.80;;;;;;;17.28;100.00;100449.88;5053144;28;20053;-84
2022/06/17 08:28:15;;;;;;;7.80;2.45;;;;;;;17.26;100.00;100438.56;5052048;28;20049;-84
2022/06/17 08:30:51;;;;;;;6.75;2.33;;;;;;;17.14;100.00;100437.63;5048813;28;20041;-84
2022/06/17 08:33:25;;;;;;;8.82;2.78;;;;;;;17.01;100.00;100448.19;5048575;28;20053;-84
2022/06/17 08:36:12;;;;;;;6.50;2.15;;;;;;;17.11;100.00;100461.66;5047147;28;20054;-84
2022/06/17 08:38:46;;;;;;;7.72;2.47;;;;;;;17.17;100.00;100447.16;5060814;28;20060;-84
2022/06/17 08:41:33;;;;;;;7.07;2.20;;;;;;;17.34;100.00;100459.22;5051650;28;20053;-84
2022/06/17 08:44:18;;;;;;;8.82;2.53;;;;;;;17.20;100.00;100445.13;5050057;28;20080;-84
2022/06/17 08:46:52;;;;;;;7.03;2.20;;;;;;;17.23;100.00;100450.22;5046617;28;20049;-84
2022/06/17 08:49:55;;;;;;;5.57;2.28;;;;;;;17.35;100.00;100445.00;5039432;28;20057;-84
2022/06/17 08:52:42;;;;;;;7.82;2.20;;;;;;;17.11;100.00;100445.78;5064227;28;20438;-84
2022/06/17 08:55:21;;;;;;;8.40;2.45;;;;;;;17.49;100.00;100431.63;5058747;28;20060;-84
2022/06/17 08:58:02;;;;;;;7.47;2.25;;;;;;;17.69;100.00;100416.97;5044744;28;20397;-84
2022/06/17 09:00:51;;;;;;;8.60;3.10;;;;;;;17.55;100.00;100420.63;5050906;28;20525;-85
2022/06/17 09:03:45;;;;;;;6.78;2.33;;;;;;;17.50;100.00;100420.09;5052186;28;20055;-85
2022/06/17 09:06:30;;;;;;;6.65;2.08;;;;;;;17.35;100.00;100427.34;5048457;28;20056;-84
2022/06/17 09:09:16;;;;;;;9.15;2.63;;;;;;;17.29;100.00;100414.53;5051510;28;20053;-86
2022/06/17 09:11:49;;;;;;;10.48;2.55;;;;;;;17.26;100.00;100405.03;5058261;28;20041;-85
2022/06/17 09:14:49;;;;;;;7.47;2.30;;;;;;;17.52;100.00;100404.94;5069168;28;20054;-85
2022/06/17 09:17:45;;;;;;;9.70;2.28;;;;;;;17.29;100.00;100422.47;5045030;28;20048;-83
2022/06/17 09:20:15;;;;;;;6.55;1.95;;;;;;;17.37;100.00;100398.97;5050754;28;20053;-84
2022/06/17 09:22:49;;;;;;;5.65;1.90;;;;;;;17.18;100.00;100414.47;5053123;28;20051;-84
2022/06/17 09:25:23;;;;;;;8.23;2.10;;;;;;;17.06;100.00;100379.97;5050209;28;20049;-85
2022/06/17 09:27:51;;;;;;;7.82;2.00;;;;;;;17.05;100.00;100399.44;5049048;28;20045;-84
2022/06/17 09:30:22;;;;;;;6.03;1.80;;;;;;;17.42;100.00;100403.91;5050394;28;20059;-84
2022/06/17 09:32:55;;;;;;;8.73;2.00;;;;;;;17.56;100.00;100403.75;5067832;28;20045;-84
2022/06/17 09:35:50;;;;;;;6.78;2.05;;;;;;;17.26;100.00;100396.22;5050546;28;20467;-85
2022/06/17 09:38:37;;;;;;;6.28;1.98;;;;;;;17.67;100.00;100412.75;5049376;28;20494;-85
2022/06/17 09:41:36;;;;;;;7.03;1.80;;;;;;;17.73;100.00;100410.50;5051136;28;20053;-85
2022/06/17 09:44:20;;;;;;;10.35;1.90;;;;;;;17.59;100.00;100437.97;5036002;28;20485;-85
2022/06/17 09:46:53;;;;;;;6.40;1.92;;;;;;;17.92;100.00;100425.94;5047700;28;20442;-85
2022/06/17 09:49:31;;;;;;;6.53;1.80;;;;;;;17.71;100.00;100395.69;5048641;28;20060;-85
2022/06/17 09:52:28;;;;;;;6.60;1.77;;;;;;;17.59;100.00;100410.66;5053893;28;20059;-86
2022/06/17 09:55:09;;;;;;;5.55;2.10;;;;;;;17.23;100.00;100352.31;5051471;28;20041;-85
2022/06/17 09:57:52;;;;;;;6.97;2.20;;;;;;;17.72;100.00;100382.31;5052589;28;20059;-86
2022/06/17 10:00:23;;;;;;;4.97;1.57;;;;;;;17.53;100.00;100366.94;5052339;28;20091;-85
2022/06/17 10:03:11;;;;;;;5.22;1.60;;;;;;;17.68;100.00;100329.72;5067862;28;20294;-85
2022/06/17 10:06:01;;;;;;;8.90;1.77;;;;;;;17.94;100.00;100365.75;5048159;28;20053;-85
2022/06/17 10:08:43;;;;;;;6.85;1.75;;;;;;;18.00;100.00;100357.31;5011489;28;20406;-85
2022/06/17 10:11:17;;;;;;;5.80;1.60;;;;;;;17.63;100.00;100364.47;5054902;28;20553;-85
2022/06/17 10:14:21;;;;;;;3.97;1.38;;;;;;;17.92;100.00;100345.59;5059405;28;20045;-85
2022/06/17 10:20:21;;;;;;;5.40;1.60;;;;;;;17.90;100.00;100352.81;5049758;28;20398;-86
2022/06/17 10:23:16;;;;;;;5.93;1.55;;;;;;;18.38;100.00;100371.31;5066916;28;20051;-86
2022/06/17 10:26:12;;;;;;;5.47;1.50;;;;;;;18.78;100.00;100376.19;5057632;28;20114;-86
2022/06/17 10:29:00;;;;;;;4.72;1.33;;;;;;;18.92;100.00;100375.13;5051413;28;20053;-86
2022/06/17 10:31:43;;;;;;;6.30;1.48;;;;;;;18.85;100.00;100388.03;5051730;28;20075;-86
2022/06/17 10:34:16;;;;;;;8.13;1.48;;;;;;;19.10;100.00;100391.41;5051850;28;20407;-85
2022/06/17 10:36:44;;;;;;;3.67;1.42;;;;;;;19.31;100.00;100373.78;5047164;28;20472;-86
2022/06/17 10:39:14;;;;;;;4.97;1.45;;;;;;;19.41;100.00;100386.34;5065944;28;20044;-86
2022/06/17 10:41:42;;;;;;;7.30;1.48;;;;;;;19.11;100.00;100324.13;5044914;28;20490;-86
2022/06/17 10:44:13;;;;;;;3.78;1.10;;;;;;;19.28;100.00;100379.34;5049497;28;20479;-86
2022/06/17 10:46:47;;;;;;;3.92;1.25;;;;;;;19.57;100.00;100380.63;5050295;28;20109;-86
2022/06/17 10:49:26;;;;;;;3.42;1.00;;;;;;;19.92;100.00;100404.34;5066594;28;20128;-86
2022/06/17 10:51:54;;;;;;;4.60;1.13;;;;;;;19.52;100.00;100376.50;5045684;28;20128;-86
2022/06/17 10:54:29;;;;;;;4.32;1.00;;;;;;;18.97;100.00;100365.00;5054727;28;20049;-85
2022/06/17 10:57:30;;;;;;;5.50;1.45;;;;;;;19.00;100.00;100371.88;5055737;28;20489;-85
2022/06/17 10:59:57;;;;;;;2.22;0.90;;;;;;;19.12;100.00;100347.00;5057659;28;20482;-86
2022/06/17 11:02:29;;;;;;;2.88;1.08;;;;;;;19.25;100.00;100347.75;5057112;28;20045;-87
2022/06/17 11:04:58;;;;;;;4.32;1.20;;;;;;;19.32;100.00;100356.06;5063205;28;20448;-86
2022/06/17 11:07:30;;;;;;;4.32;1.10;;;;;;;18.80;100.00;100339.75;5052066;28;20418;-86
2022/06/17 11:10:03;;;;;;;2.80;1.27;;;;;;;18.80;100.00;100270.81;5066646;28;20409;-85
2022/06/17 11:12:38;;;;;;;2.45;1.00;;;;;;;18.74;100.00;100345.56;5058458;28;20479;-86
2022/06/17 11:15:29;;;;;;;6.57;1.55;;;;;;;18.72;100.00;100307.72;5051598;28;20098;-85
2022/06/17 11:18:05;;;;;;;2.22;0.93;;;;;;;19.11;100.00;100301.06;5058080;28;20136;-84
2022/06/17 11:20:36;;;;;;;2.33;0.90;;;;;;;18.99;100.00;100319.78;5052636;28;20484;-84
2022/06/17 11:23:29;;;;;;;4.55;1.00;;;;;;;19.68;100.00;100346.06;5050150;28;20079;-83
2022/06/17 11:26:17;;;;;;;1.55;0.88;;;;;;;19.23;100.00;100343.50;5054180;28;20442;-83
2022/06/17 11:28:48;;;;;;;1.55;0.80;;;;;;;19.79;100.00;100339.91;5051898;28;20045;-84
2022/06/17 11:31:29;;;;;;;3.95;0.85;;;;;;;20.13;100.00;100351.19;5046812;28;20053;-84
2022/06/17 11:34:01;;;;;;;3.08;0.95;;;;;;;20.72;100.00;100365.75;5056876;28;20076;-83
2022/06/17 11:36:29;;;;;;;1.65;0.80;;;;;;;20.77;100.00;100375.97;5058884;28;20064;-83
2022/06/17 11:39:32;;;;;;;1.45;0.75;;;;;;;20.76;100.00;100377.78;5057871;28;20136;-83
2022/06/17 11:42:01;;;;;;;2.03;1.02;;;;;;;20.63;100.00;100343.44;5066395;28;20068;-85
2022/06/17 11:44:29;;;;;;;1.75;0.80;;;;;;;20.95;100.00;100346.94;5055382;28;20080;-83
2022/06/17 11:47:00;;;;;;;1.80;0.90;;;;;;;21.58;100.00;100360.00;5056399;28;20056;-84
2022/06/17 11:49:32;;;;;;;2.50;1.23;;;;;;;21.16;100.00;100338.88;5057191;28;20056;-83
2022/06/17 11:52:02;;;;;;;2.38;0.80;;;;;;;21.22;100.00;100339.16;5053128;28;20140;-83